sensor_id;sensor_type;location;lat;lon;timestamp;P1;durP1;ratioP1;P2;durP2;ratioP2
43744;SDS011;29359;53.048;8.732;2023-04-20T00:00:29;2.38;;;1.73;;
43744;SDS011;29359;53.048;8.732;2023-04-20T00:02:31;3.08;;;1.90;;
43744;SDS011;29359;53.048;8.732;2023-04-20T00:04:32;5.20;;;2.00;;
43744;SDS011;29359;53.048;8.732;2023-04-20T00:06:34;5.25;;;2.10;;
43744;SDS011;29359;53.048;8.732;2023-04-20T00:08:36;2.60;;;1.90;;
43744;SDS011;29359;53.048;8.732;2023-04-20T00:10:37;8.40;;;2.17;;
43744;SDS011;29359;53.048;8.732;2023-04-20T00:12:40;3.13;;;1.67;;
43744;SDS011;29359;53.048;8.732;2023-04-20T00:14:42;7.80;;;1.90;;
43744;SDS011;29359;53.048;8.732;2023-04-20T00:16:43;7.63;;;1.73;;
43744;SDS011;29359;53.048;8.732;2023-04-20T00:18:45;3.78;;;1.95;;
43744;SDS011;29359;53.048;8.732;2023-04-20T00:20:47;2.13;;;1.90;;
43744;SDS011;29359;53.048;8.732;2023-04-20T00:22:48;3.17;;;1.58;;
43744;SDS011;29359;53.048;8.732;2023-04-20T00:24:50;3.42;;;2.13;;
43744;SDS011;29359;53.048;8.732;2023-04-20T00:26:51;3.08;;;1.85;;
43744;SDS011;29359;53.048;8.732;2023-04-20T00:28:53;4.53;;;1.27;;
43744;SDS011;29359;53.048;8.732;2023-04-20T00:30:54;2.33;;;1.73;;
43744;SDS011;29359;53.048;8.732;2023-04-20T00:32:56;6.40;;;2.00;;
43744;SDS011;29359;53.048;8.732;2023-04-20T00:34:58;2.47;;;1.60;;
43744;SDS011;29359;53.048;8.732;2023-04-20T00:37:00;3.80;;;1.55;;
43744;SDS011;29359;53.048;8.732;2023-04-20T00:39:01;6.40;;;1.80;;
43744;SDS011;29359;53.048;8.732;2023-04-20T00:41:05;3.00;;;1.70;;
43744;SDS011;29359;53.048;8.732;2023-04-20T00:43:10;1.48;;;1.30;;
43744;SDS011;29359;53.048;8.732;2023-04-20T00:45:12;3.42;;;1.92;;
43744;SDS011;29359;53.048;8.732;2023-04-20T00:47:14;2.67;;;2.10;;
43744;SDS011;29359;53.048;8.732;2023-04-20T00:49:15;4.93;;;2.47;;
43744;SDS011;29359;53.048;8.732;2023-04-20T00:51:22;2.03;;;1.83;;
43744;SDS011;29359;53.048;8.732;2023-04-20T00:53:23;5.88;;;2.13;;
43744;SDS011;29359;53.048;8.732;2023-04-20T00:55:25;2.88;;;1.90;;
43744;SDS011;29359;53.048;8.732;2023-04-20T00:57:27;2.83;;;1.73;;
43744;SDS011;29359;53.048;8.732;2023-04-20T00:59:29;3.20;;;2.38;;
43744;SDS011;29359;53.048;8.732;2023-04-20T01:01:31;1.70;;;1.60;;
43744;SDS011;29359;53.048;8.732;2023-04-20T01:03:32;3.72;;;2.13;;
43744;SDS011;29359;53.048;8.732;2023-04-20T01:05:34;3.65;;;2.10;;
43744;SDS011;29359;53.048;8.732;2023-04-20T01:07:36;3.65;;;2.20;;
43744;SDS011;29359;53.048;8.732;2023-04-20T01:09:37;2.53;;;1.75;;
43744;SDS011;29359;53.048;8.732;2023-04-20T01:11:39;3.00;;;2.25;;
43744;SDS011;29359;53.048;8.732;2023-04-20T01:13:41;2.60;;;1.90;;
43744;SDS011;29359;53.048;8.732;2023-04-20T01:15:43;2.42;;;1.98;;
43744;SDS011;29359;53.048;8.732;2023-04-20T01:17:45;2.53;;;2.17;;
43744;SDS011;29359;53.048;8.732;2023-04-20T01:19:46;4.50;;;1.95;;
43744;SDS011;29359;53.048;8.732;2023-04-20T01:21:49;2.33;;;1.73;;
43744;SDS011;29359;53.048;8.732;2023-04-20T01:23:51;2.33;;;1.90;;
43744;SDS011;29359;53.048;8.732;2023-04-20T01:25:52;4.63;;;2.08;;
43744;SDS011;29359;53.048;8.732;2023-04-20T01:27:54;1.92;;;1.80;;
43744;SDS011;29359;53.048;8.732;2023-04-20T01:29:55;4.05;;;3.13;;
43744;SDS011;29359;53.048;8.732;2023-04-20T01:31:57;5.78;;;2.70;;
43744;SDS011;29359;53.048;8.732;2023-04-20T01:33:58;9.23;;;2.30;;
43744;SDS011;29359;53.048;8.732;2023-04-20T01:36:00;2.35;;;2.15;;
43744;SDS011;29359;53.048;8.732;2023-04-20T01:38:01;4.13;;;1.90;;
43744;SDS011;29359;53.048;8.732;2023-04-20T01:40:03;3.08;;;1.75;;
43744;SDS011;29359;53.048;8.732;2023-04-20T01:42:06;3.75;;;2.22;;
43744;SDS011;29359;53.048;8.732;2023-04-20T01:44:08;2.50;;;1.70;;
43744;SDS011;29359;53.048;8.732;2023-04-20T01:46:09;2.85;;;1.73;;
43744;SDS011;29359;53.048;8.732;2023-04-20T01:48:11;1.73;;;1.58;;
43744;SDS011;29359;53.048;8.732;2023-04-20T01:50:12;2.67;;;1.60;;
43744;SDS011;29359;53.048;8.732;2023-04-20T01:52:14;6.15;;;1.77;;
43744;SDS011;29359;53.048;8.732;2023-04-20T01:54:15;3.20;;;1.70;;
43744;SDS011;29359;53.048;8.732;2023-04-20T01:56:17;5.78;;;1.70;;
43744;SDS011;29359;53.048;8.732;2023-04-20T01:58:18;10.52;;;1.70;;
43744;SDS011;29359;53.048;8.732;2023-04-20T02:00:20;3.05;;;1.65;;
43744;SDS011;29359;53.048;8.732;2023-04-20T02:02:21;4.72;;;1.85;;
43744;SDS011;29359;53.048;8.732;2023-04-20T02:04:23;4.70;;;1.77;;
43744;SDS011;29359;53.048;8.732;2023-04-20T02:06:25;2.78;;;1.90;;
43744;SDS011;29359;53.048;8.732;2023-04-20T02:08:26;1.65;;;1.50;;
43744;SDS011;29359;53.048;8.732;2023-04-20T02:10:28;2.33;;;1.77;;
43744;SDS011;29359;53.048;8.732;2023-04-20T02:12:29;2.95;;;1.63;;
43744;SDS011;29359;53.048;8.732;2023-04-20T02:14:31;4.22;;;1.67;;
43744;SDS011;29359;53.048;8.732;2023-04-20T02:16:32;7.25;;;1.92;;
43744;SDS011;29359;53.048;8.732;2023-04-20T02:18:34;3.70;;;2.00;;
43744;SDS011;29359;53.048;8.732;2023-04-20T02:20:35;2.45;;;1.48;;
43744;SDS011;29359;53.048;8.732;2023-04-20T02:22:37;3.83;;;2.10;;
43744;SDS011;29359;53.048;8.732;2023-04-20T02:24:39;5.65;;;1.95;;
43744;SDS011;29359;53.048;8.732;2023-04-20T02:26:41;3.13;;;1.45;;
43744;SDS011;29359;53.048;8.732;2023-04-20T02:28:43;4.57;;;1.83;;
43744;SDS011;29359;53.048;8.732;2023-04-20T02:30:44;3.30;;;1.60;;
43744;SDS011;29359;53.048;8.732;2023-04-20T02:32:46;5.25;;;1.67;;
43744;SDS011;29359;53.048;8.732;2023-04-20T02:34:47;4.03;;;1.80;;
43744;SDS011;29359;53.048;8.732;2023-04-20T02:36:49;2.97;;;1.83;;
43744;SDS011;29359;53.048;8.732;2023-04-20T02:38:50;4.72;;;2.00;;
43744;SDS011;29359;53.048;8.732;2023-04-20T02:40:52;2.75;;;1.58;;
43744;SDS011;29359;53.048;8.732;2023-04-20T02:42:53;11.85;;;2.03;;
43744;SDS011;29359;53.048;8.732;2023-04-20T02:44:55;4.70;;;2.10;;
43744;SDS011;29359;53.048;8.732;2023-04-20T02:46:56;4.63;;;2.13;;
43744;SDS011;29359;53.048;8.732;2023-04-20T02:48:58;2.95;;;1.95;;
43744;SDS011;29359;53.048;8.732;2023-04-20T02:50:59;9.95;;;1.98;;
43744;SDS011;29359;53.048;8.732;2023-04-20T02:53:01;5.03;;;1.83;;
43744;SDS011;29359;53.048;8.732;2023-04-20T02:55:02;5.80;;;1.67;;
43744;SDS011;29359;53.048;8.732;2023-04-20T02:57:04;3.63;;;1.65;;
43744;SDS011;29359;53.048;8.732;2023-04-20T02:59:06;5.47;;;1.85;;
43744;SDS011;29359;53.048;8.732;2023-04-20T03:01:08;6.55;;;1.70;;
43744;SDS011;29359;53.048;8.732;2023-04-20T03:03:09;3.67;;;1.65;;
43744;SDS011;29359;53.048;8.732;2023-04-20T03:05:11;5.07;;;2.17;;
43744;SDS011;29359;53.048;8.732;2023-04-20T03:07:13;3.70;;;2.08;;
43744;SDS011;29359;53.048;8.732;2023-04-20T03:09:16;5.53;;;1.90;;
43744;SDS011;29359;53.048;8.732;2023-04-20T03:11:18;3.30;;;1.65;;
43744;SDS011;29359;53.048;8.732;2023-04-20T03:13:20;2.65;;;1.48;;
43744;SDS011;29359;53.048;8.732;2023-04-20T03:15:22;3.78;;;2.13;;
43744;SDS011;29359;53.048;8.732;2023-04-20T03:17:24;5.47;;;2.05;;
43744;SDS011;29359;53.048;8.732;2023-04-20T03:19:26;9.90;;;2.58;;
43744;SDS011;29359;53.048;8.732;2023-04-20T03:21:27;10.32;;;1.90;;
43744;SDS011;29359;53.048;8.732;2023-04-20T03:23:29;5.70;;;2.15;;
43744;SDS011;29359;53.048;8.732;2023-04-20T03:25:30;4.60;;;2.10;;
43744;SDS011;29359;53.048;8.732;2023-04-20T03:27:32;4.78;;;2.10;;
43744;SDS011;29359;53.048;8.732;2023-04-20T03:29:33;3.78;;;2.20;;
43744;SDS011;29359;53.048;8.732;2023-04-20T03:31:35;4.90;;;1.88;;
43744;SDS011;29359;53.048;8.732;2023-04-20T03:33:36;3.72;;;2.00;;
43744;SDS011;29359;53.048;8.732;2023-04-20T03:35:38;3.80;;;2.03;;
43744;SDS011;29359;53.048;8.732;2023-04-20T03:37:39;5.25;;;2.03;;
43744;SDS011;29359;53.048;8.732;2023-04-20T03:39:41;3.47;;;1.80;;
43744;SDS011;29359;53.048;8.732;2023-04-20T03:41:42;4.47;;;2.08;;
43744;SDS011;29359;53.048;8.732;2023-04-20T03:43:44;4.32;;;1.90;;
43744;SDS011;29359;53.048;8.732;2023-04-20T03:45:45;3.05;;;2.08;;
43744;SDS011;29359;53.048;8.732;2023-04-20T03:47:47;3.60;;;1.80;;
43744;SDS011;29359;53.048;8.732;2023-04-20T03:49:49;7.72;;;2.15;;
43744;SDS011;29359;53.048;8.732;2023-04-20T03:51:50;6.45;;;2.63;;
43744;SDS011;29359;53.048;8.732;2023-04-20T03:53:52;3.13;;;2.08;;
43744;SDS011;29359;53.048;8.732;2023-04-20T03:55:54;4.05;;;1.92;;
43744;SDS011;29359;53.048;8.732;2023-04-20T03:57:56;6.80;;;2.17;;
43744;SDS011;29359;53.048;8.732;2023-04-20T03:59:57;5.57;;;1.95;;
43744;SDS011;29359;53.048;8.732;2023-04-20T04:01:59;9.85;;;2.47;;
43744;SDS011;29359;53.048;8.732;2023-04-20T04:04:02;7.20;;;1.92;;
43744;SDS011;29359;53.048;8.732;2023-04-20T04:06:04;3.50;;;1.90;;
43744;SDS011;29359;53.048;8.732;2023-04-20T04:08:05;5.63;;;2.08;;
43744;SDS011;29359;53.048;8.732;2023-04-20T04:10:07;3.67;;;2.10;;
43744;SDS011;29359;53.048;8.732;2023-04-20T04:12:09;4.70;;;2.50;;
43744;SDS011;29359;53.048;8.732;2023-04-20T04:14:11;4.30;;;2.33;;
43744;SDS011;29359;53.048;8.732;2023-04-20T04:16:12;6.45;;;2.15;;
43744;SDS011;29359;53.048;8.732;2023-04-20T04:18:14;6.68;;;1.88;;
43744;SDS011;29359;53.048;8.732;2023-04-20T04:20:15;4.03;;;2.10;;
43744;SDS011;29359;53.048;8.732;2023-04-20T04:22:17;6.57;;;2.28;;
43744;SDS011;29359;53.048;8.732;2023-04-20T04:24:18;7.45;;;3.38;;
43744;SDS011;29359;53.048;8.732;2023-04-20T04:26:21;3.10;;;2.30;;
43744;SDS011;29359;53.048;8.732;2023-04-20T04:28:24;4.57;;;2.20;;
43744;SDS011;29359;53.048;8.732;2023-04-20T04:30:26;6.70;;;2.70;;
43744;SDS011;29359;53.048;8.732;2023-04-20T04:32:28;5.35;;;2.28;;
43744;SDS011;29359;53.048;8.732;2023-04-20T04:34:30;4.35;;;2.25;;
43744;SDS011;29359;53.048;8.732;2023-04-20T04:36:31;2.65;;;2.03;;
43744;SDS011;29359;53.048;8.732;2023-04-20T04:38:33;3.75;;;2.30;;
43744;SDS011;29359;53.048;8.732;2023-04-20T04:40:35;5.55;;;2.20;;
43744;SDS011;29359;53.048;8.732;2023-04-20T04:42:36;4.28;;;2.25;;
43744;SDS011;29359;53.048;8.732;2023-04-20T04:44:38;3.38;;;2.30;;
43744;SDS011;29359;53.048;8.732;2023-04-20T04:46:40;4.40;;;2.60;;
43744;SDS011;29359;53.048;8.732;2023-04-20T04:48:42;4.05;;;2.33;;
43744;SDS011;29359;53.048;8.732;2023-04-20T04:50:43;3.25;;;2.00;;
43744;SDS011;29359;53.048;8.732;2023-04-20T04:52:45;6.60;;;2.20;;
43744;SDS011;29359;53.048;8.732;2023-04-20T04:54:46;12.73;;;2.53;;
43744;SDS011;29359;53.048;8.732;2023-04-20T04:56:49;2.90;;;2.38;;
43744;SDS011;29359;53.048;8.732;2023-04-20T04:58:51;4.95;;;2.40;;
43744;SDS011;29359;53.048;8.732;2023-04-20T05:00:52;7.90;;;2.40;;
43744;SDS011;29359;53.048;8.732;2023-04-20T05:02:54;1.92;;;1.73;;
43744;SDS011;29359;53.048;8.732;2023-04-20T05:04:55;6.78;;;3.30;;
43744;SDS011;29359;53.048;8.732;2023-04-20T05:06:57;7.15;;;3.17;;
43744;SDS011;29359;53.048;8.732;2023-04-20T05:08:59;7.82;;;2.17;;
43744;SDS011;29359;53.048;8.732;2023-04-20T05:11:00;6.50;;;2.35;;
43744;SDS011;29359;53.048;8.732;2023-04-20T05:13:02;6.78;;;2.70;;
43744;SDS011;29359;53.048;8.732;2023-04-20T05:15:04;11.30;;;3.08;;
43744;SDS011;29359;53.048;8.732;2023-04-20T05:17:06;7.88;;;2.53;;
43744;SDS011;29359;53.048;8.732;2023-04-20T05:19:08;7.15;;;2.88;;
43744;SDS011;29359;53.048;8.732;2023-04-20T05:21:09;7.45;;;3.08;;
43744;SDS011;29359;53.048;8.732;2023-04-20T05:23:11;5.68;;;2.17;;
43744;SDS011;29359;53.048;8.732;2023-04-20T05:25:12;6.38;;;2.47;;
43744;SDS011;29359;53.048;8.732;2023-04-20T05:27:14;8.10;;;2.88;;
43744;SDS011;29359;53.048;8.732;2023-04-20T05:29:16;11.75;;;2.53;;
43744;SDS011;29359;53.048;8.732;2023-04-20T05:31:18;4.95;;;2.47;;
43744;SDS011;29359;53.048;8.732;2023-04-20T05:33:20;5.75;;;2.22;;
43744;SDS011;29359;53.048;8.732;2023-04-20T05:35:22;8.95;;;2.75;;
43744;SDS011;29359;53.048;8.732;2023-04-20T05:37:24;5.28;;;2.28;;
43744;SDS011;29359;53.048;8.732;2023-04-20T05:39:25;5.82;;;2.95;;
43744;SDS011;29359;53.048;8.732;2023-04-20T05:41:27;11.45;;;2.88;;
43744;SDS011;29359;53.048;8.732;2023-04-20T05:43:28;2.65;;;2.15;;
43744;SDS011;29359;53.048;8.732;2023-04-20T05:45:30;3.67;;;1.95;;
43744;SDS011;29359;53.048;8.732;2023-04-20T05:47:34;3.65;;;2.13;;
43744;SDS011;29359;53.048;8.732;2023-04-20T05:49:35;6.20;;;2.45;;
43744;SDS011;29359;53.048;8.732;2023-04-20T05:51:37;5.15;;;2.22;;
43744;SDS011;29359;53.048;8.732;2023-04-20T05:53:39;6.68;;;2.40;;
43744;SDS011;29359;53.048;8.732;2023-04-20T05:55:40;5.57;;;2.67;;
43744;SDS011;29359;53.048;8.732;2023-04-20T05:57:42;8.15;;;2.70;;
43744;SDS011;29359;53.048;8.732;2023-04-20T05:59:44;3.70;;;2.33;;
43744;SDS011;29359;53.048;8.732;2023-04-20T06:01:46;8.07;;;2.88;;
43744;SDS011;29359;53.048;8.732;2023-04-20T06:03:47;8.20;;;2.42;;
43744;SDS011;29359;53.048;8.732;2023-04-20T06:05:49;10.43;;;2.65;;
43744;SDS011;29359;53.048;8.732;2023-04-20T06:07:51;7.32;;;3.00;;
43744;SDS011;29359;53.048;8.732;2023-04-20T06:09:53;5.28;;;2.80;;
43744;SDS011;29359;53.048;8.732;2023-04-20T06:11:55;9.90;;;3.03;;
43744;SDS011;29359;53.048;8.732;2023-04-20T06:13:57;5.55;;;3.00;;
43744;SDS011;29359;53.048;8.732;2023-04-20T06:15:58;7.90;;;3.25;;
43744;SDS011;29359;53.048;8.732;2023-04-20T06:18:00;7.15;;;2.83;;
43744;SDS011;29359;53.048;8.732;2023-04-20T06:20:02;5.97;;;3.47;;
43744;SDS011;29359;53.048;8.732;2023-04-20T06:22:05;6.47;;;2.70;;
43744;SDS011;29359;53.048;8.732;2023-04-20T06:24:08;7.20;;;3.08;;
43744;SDS011;29359;53.048;8.732;2023-04-20T06:26:09;8.90;;;3.53;;
43744;SDS011;29359;53.048;8.732;2023-04-20T06:28:11;5.18;;;2.72;;
43744;SDS011;29359;53.048;8.732;2023-04-20T06:30:13;12.60;;;4.05;;
43744;SDS011;29359;53.048;8.732;2023-04-20T06:32:15;10.45;;;3.40;;
43744;SDS011;29359;53.048;8.732;2023-04-20T06:34:16;8.45;;;2.63;;
43744;SDS011;29359;53.048;8.732;2023-04-20T06:36:18;6.22;;;3.08;;
43744;SDS011;29359;53.048;8.732;2023-04-20T06:38:19;10.50;;;3.20;;
43744;SDS011;29359;53.048;8.732;2023-04-20T06:40:21;6.90;;;2.75;;
43744;SDS011;29359;53.048;8.732;2023-04-20T06:42:23;10.15;;;3.45;;
43744;SDS011;29359;53.048;8.732;2023-04-20T06:44:24;6.57;;;3.15;;
43744;SDS011;29359;53.048;8.732;2023-04-20T06:46:26;9.05;;;3.65;;
43744;SDS011;29359;53.048;8.732;2023-04-20T06:48:27;9.82;;;3.35;;
43744;SDS011;29359;53.048;8.732;2023-04-20T06:50:33;6.88;;;3.08;;
43744;SDS011;29359;53.048;8.732;2023-04-20T06:52:38;9.60;;;3.40;;
43744;SDS011;29359;53.048;8.732;2023-04-20T06:54:40;8.93;;;3.10;;
43744;SDS011;29359;53.048;8.732;2023-04-20T06:56:42;7.68;;;4.40;;
43744;SDS011;29359;53.048;8.732;2023-04-20T06:58:44;7.82;;;3.50;;
43744;SDS011;29359;53.048;8.732;2023-04-20T07:00:45;10.50;;;3.75;;
43744;SDS011;29359;53.048;8.732;2023-04-20T07:02:48;4.03;;;3.00;;
43744;SDS011;29359;53.048;8.732;2023-04-20T07:04:51;6.60;;;3.17;;
43744;SDS011;29359;53.048;8.732;2023-04-20T07:06:52;11.05;;;3.45;;
43744;SDS011;29359;53.048;8.732;2023-04-20T07:08:54;8.10;;;3.47;;
43744;SDS011;29359;53.048;8.732;2023-04-20T07:10:56;9.82;;;3.50;;
43744;SDS011;29359;53.048;8.732;2023-04-20T07:12:57;14.30;;;5.72;;
43744;SDS011;29359;53.048;8.732;2023-04-20T07:14:59;8.48;;;4.00;;
43744;SDS011;29359;53.048;8.732;2023-04-20T07:17:01;11.63;;;3.90;;
43744;SDS011;29359;53.048;8.732;2023-04-20T07:19:03;3.72;;;2.90;;
43744;SDS011;29359;53.048;8.732;2023-04-20T07:21:04;8.02;;;3.65;;
43744;SDS011;29359;53.048;8.732;2023-04-20T07:23:06;5.93;;;3.40;;
43744;SDS011;29359;53.048;8.732;2023-04-20T07:25:08;6.05;;;3.10;;
43744;SDS011;29359;53.048;8.732;2023-04-20T07:27:10;4.85;;;3.38;;
43744;SDS011;29359;53.048;8.732;2023-04-20T07:29:12;9.15;;;3.65;;
43744;SDS011;29359;53.048;8.732;2023-04-20T07:31:13;7.18;;;3.50;;
43744;SDS011;29359;53.048;8.732;2023-04-20T07:33:15;7.72;;;3.50;;
43744;SDS011;29359;53.048;8.732;2023-04-20T07:35:16;6.50;;;3.47;;
43744;SDS011;29359;53.048;8.732;2023-04-20T07:37:18;8.68;;;3.00;;
43744;SDS011;29359;53.048;8.732;2023-04-20T07:39:19;8.20;;;3.50;;
43744;SDS011;29359;53.048;8.732;2023-04-20T07:41:21;4.85;;;3.47;;
43744;SDS011;29359;53.048;8.732;2023-04-20T07:43:23;7.20;;;3.47;;
43744;SDS011;29359;53.048;8.732;2023-04-20T07:45:24;7.53;;;4.68;;
43744;SDS011;29359;53.048;8.732;2023-04-20T07:47:26;8.88;;;3.50;;
43744;SDS011;29359;53.048;8.732;2023-04-20T07:49:28;6.30;;;3.20;;
43744;SDS011;29359;53.048;8.732;2023-04-20T07:51:29;8.18;;;4.00;;
43744;SDS011;29359;53.048;8.732;2023-04-20T07:53:32;5.43;;;3.53;;
43744;SDS011;29359;53.048;8.732;2023-04-20T07:55:35;7.50;;;3.90;;
43744;SDS011;29359;53.048;8.732;2023-04-20T07:57:37;6.53;;;3.35;;
43744;SDS011;29359;53.048;8.732;2023-04-20T07:59:38;11.38;;;4.05;;
43744;SDS011;29359;53.048;8.732;2023-04-20T08:01:41;9.23;;;3.40;;
43744;SDS011;29359;53.048;8.732;2023-04-20T08:03:42;9.00;;;3.53;;
43744;SDS011;29359;53.048;8.732;2023-04-20T08:05:44;10.35;;;3.72;;
43744;SDS011;29359;53.048;8.732;2023-04-20T08:07:46;7.72;;;3.38;;
43744;SDS011;29359;53.048;8.732;2023-04-20T08:09:48;9.43;;;3.97;;
43744;SDS011;29359;53.048;8.732;2023-04-20T08:11:50;9.02;;;3.70;;
43744;SDS011;29359;53.048;8.732;2023-04-20T08:13:52;5.20;;;3.40;;
43744;SDS011;29359;53.048;8.732;2023-04-20T08:15:55;8.07;;;3.55;;
43744;SDS011;29359;53.048;8.732;2023-04-20T08:17:57;7.38;;;3.65;;
43744;SDS011;29359;53.048;8.732;2023-04-20T08:19:58;7.93;;;3.40;;
43744;SDS011;29359;53.048;8.732;2023-04-20T08:22:00;7.50;;;3.58;;
43744;SDS011;29359;53.048;8.732;2023-04-20T08:24:03;10.00;;;4.18;;
43744;SDS011;29359;53.048;8.732;2023-04-20T08:26:06;6.07;;;4.07;;
43744;SDS011;29359;53.048;8.732;2023-04-20T08:28:07;7.78;;;4.18;;
43744;SDS011;29359;53.048;8.732;2023-04-20T08:30:15;12.32;;;4.30;;
43744;SDS011;29359;53.048;8.732;2023-04-20T08:32:17;13.68;;;4.60;;
43744;SDS011;29359;53.048;8.732;2023-04-20T08:34:22;8.07;;;4.00;;
43744;SDS011;29359;53.048;8.732;2023-04-20T08:36:24;8.05;;;4.32;;
43744;SDS011;29359;53.048;8.732;2023-04-20T08:38:29;9.20;;;4.70;;
43744;SDS011;29359;53.048;8.732;2023-04-20T08:40:35;10.25;;;4.32;;
43744;SDS011;29359;53.048;8.732;2023-04-20T08:42:37;12.18;;;5.03;;
43744;SDS011;29359;53.048;8.732;2023-04-20T08:44:39;6.30;;;4.13;;
43744;SDS011;29359;53.048;8.732;2023-04-20T08:46:41;8.23;;;4.25;;
43744;SDS011;29359;53.048;8.732;2023-04-20T08:48:47;9.05;;;4.35;;
43744;SDS011;29359;53.048;8.732;2023-04-20T08:50:49;5.85;;;3.90;;
43744;SDS011;29359;53.048;8.732;2023-04-20T08:52:51;6.05;;;4.32;;
43744;SDS011;29359;53.048;8.732;2023-04-20T08:54:52;7.78;;;4.00;;
43744;SDS011;29359;53.048;8.732;2023-04-20T08:56:58;6.88;;;4.22;;
43744;SDS011;29359;53.048;8.732;2023-04-20T08:59:00;6.75;;;4.82;;
43744;SDS011;29359;53.048;8.732;2023-04-20T09:01:03;8.60;;;4.22;;
43744;SDS011;29359;53.048;8.732;2023-04-20T09:03:05;10.32;;;4.55;;
43744;SDS011;29359;53.048;8.732;2023-04-20T09:05:07;8.13;;;4.40;;
43744;SDS011;29359;53.048;8.732;2023-04-20T09:07:18;6.63;;;4.25;;
43744;SDS011;29359;53.048;8.732;2023-04-20T09:09:21;11.82;;;4.75;;
43744;SDS011;29359;53.048;8.732;2023-04-20T09:11:25;5.32;;;4.30;;
43744;SDS011;29359;53.048;8.732;2023-04-20T09:13:28;6.47;;;4.13;;
43744;SDS011;29359;53.048;8.732;2023-04-20T09:15:30;7.03;;;4.13;;
43744;SDS011;29359;53.048;8.732;2023-04-20T09:17:33;6.90;;;4.70;;
43744;SDS011;29359;53.048;8.732;2023-04-20T09:19:36;7.30;;;5.07;;
43744;SDS011;29359;53.048;8.732;2023-04-20T09:21:46;7.82;;;4.30;;
43744;SDS011;29359;53.048;8.732;2023-04-20T09:24:23;14.27;;;4.75;;
43744;SDS011;29359;53.048;8.732;2023-04-20T09:26:17;7.50;;;4.22;;
43744;SDS011;29359;53.048;8.732;2023-04-20T09:28:19;7.55;;;4.53;;
43744;SDS011;29359;53.048;8.732;2023-04-20T09:30:21;8.43;;;4.30;;
43744;SDS011;29359;53.048;8.732;2023-04-20T09:32:23;6.13;;;4.20;;
43744;SDS011;29359;53.048;8.732;2023-04-20T09:34:25;6.82;;;4.10;;
43744;SDS011;29359;53.048;8.732;2023-04-20T09:36:33;10.73;;;4.53;;
43744;SDS011;29359;53.048;8.732;2023-04-20T09:38:38;5.50;;;4.25;;
43744;SDS011;29359;53.048;8.732;2023-04-20T09:40:39;10.35;;;4.78;;
43744;SDS011;29359;53.048;8.732;2023-04-20T09:42:41;9.50;;;4.43;;
43744;SDS011;29359;53.048;8.732;2023-04-20T09:44:43;9.68;;;4.80;;
43744;SDS011;29359;53.048;8.732;2023-04-20T09:46:45;5.82;;;4.32;;
43744;SDS011;29359;53.048;8.732;2023-04-20T09:48:47;8.40;;;4.45;;
43744;SDS011;29359;53.048;8.732;2023-04-20T09:50:49;6.97;;;4.80;;
43744;SDS011;29359;53.048;8.732;2023-04-20T09:52:52;8.50;;;4.95;;
43744;SDS011;29359;53.048;8.732;2023-04-20T09:54:54;8.18;;;4.30;;
43744;SDS011;29359;53.048;8.732;2023-04-20T09:56:57;6.45;;;5.03;;
43744;SDS011;29359;53.048;8.732;2023-04-20T09:58:59;8.52;;;4.43;;
43744;SDS011;29359;53.048;8.732;2023-04-20T10:01:02;6.43;;;4.07;;
43744;SDS011;29359;53.048;8.732;2023-04-20T10:03:03;12.00;;;4.80;;
43744;SDS011;29359;53.048;8.732;2023-04-20T10:05:06;5.47;;;4.10;;
43744;SDS011;29359;53.048;8.732;2023-04-20T10:07:08;6.90;;;3.92;;
43744;SDS011;29359;53.048;8.732;2023-04-20T10:09:19;7.80;;;4.63;;
43744;SDS011;29359;53.048;8.732;2023-04-20T10:13:52;7.68;;;4.30;;
43744;SDS011;29359;53.048;8.732;2023-04-20T10:15:53;8.25;;;5.07;;
43744;SDS011;29359;53.048;8.732;2023-04-20T10:17:55;6.47;;;4.15;;
43744;SDS011;29359;53.048;8.732;2023-04-20T10:19:57;5.63;;;3.83;;
43744;SDS011;29359;53.048;8.732;2023-04-20T10:21:59;7.25;;;4.70;;
43744;SDS011;29359;53.048;8.732;2023-04-20T10:24:00;6.93;;;3.83;;
43744;SDS011;29359;53.048;8.732;2023-04-20T10:26:03;7.60;;;4.32;;
43744;SDS011;29359;53.048;8.732;2023-04-20T10:28:05;7.05;;;4.28;;
43744;SDS011;29359;53.048;8.732;2023-04-20T10:30:10;4.22;;;3.80;;
43744;SDS011;29359;53.048;8.732;2023-04-20T10:34:33;6.90;;;4.43;;
43744;SDS011;29359;53.048;8.732;2023-04-20T10:36:36;5.45;;;4.53;;
43744;SDS011;29359;53.048;8.732;2023-04-20T10:38:39;6.93;;;4.35;;
43744;SDS011;29359;53.048;8.732;2023-04-20T10:40:41;6.53;;;4.88;;
43744;SDS011;29359;53.048;8.732;2023-04-20T10:42:43;4.70;;;4.20;;
43744;SDS011;29359;53.048;8.732;2023-04-20T10:46:54;6.68;;;4.25;;
43744;SDS011;29359;53.048;8.732;2023-04-20T10:51:07;11.68;;;4.78;;
43744;SDS011;29359;53.048;8.732;2023-04-20T10:53:16;6.20;;;4.03;;
43744;SDS011;29359;53.048;8.732;2023-04-20T10:55:23;8.90;;;4.90;;
43744;SDS011;29359;53.048;8.732;2023-04-20T10:57:25;5.20;;;4.45;;
43744;SDS011;29359;53.048;8.732;2023-04-20T10:59:27;7.28;;;4.60;;
43744;SDS011;29359;53.048;8.732;2023-04-20T11:01:30;8.25;;;4.53;;
43744;SDS011;29359;53.048;8.732;2023-04-20T11:03:32;4.70;;;4.30;;
43744;SDS011;29359;53.048;8.732;2023-04-20T11:05:35;6.75;;;4.45;;
43744;SDS011;29359;53.048;8.732;2023-04-20T11:07:45;6.93;;;4.35;;
43744;SDS011;29359;53.048;8.732;2023-04-20T11:09:54;7.00;;;4.50;;
43744;SDS011;29359;53.048;8.732;2023-04-20T11:12:00;5.90;;;4.10;;
43744;SDS011;29359;53.048;8.732;2023-04-20T11:14:06;6.30;;;4.78;;
43744;SDS011;29359;53.048;8.732;2023-04-20T11:16:12;6.97;;;4.75;;
43744;SDS011;29359;53.048;8.732;2023-04-20T11:18:14;5.05;;;4.55;;
43744;SDS011;29359;53.048;8.732;2023-04-20T11:20:16;4.82;;;4.10;;
43744;SDS011;29359;53.048;8.732;2023-04-20T11:22:21;7.72;;;5.18;;
43744;SDS011;29359;53.048;8.732;2023-04-20T11:24:27;5.82;;;4.38;;
43744;SDS011;29359;53.048;8.732;2023-04-20T11:26:37;6.47;;;4.05;;
43744;SDS011;29359;53.048;8.732;2023-04-20T11:28:52;9.95;;;4.45;;
43744;SDS011;29359;53.048;8.732;2023-04-20T11:30:56;6.00;;;4.60;;
43744;SDS011;29359;53.048;8.732;2023-04-20T11:32:58;8.73;;;5.10;;
43744;SDS011;29359;53.048;8.732;2023-04-20T11:35:06;7.40;;;4.30;;
43744;SDS011;29359;53.048;8.732;2023-04-20T11:37:09;7.60;;;4.80;;
43744;SDS011;29359;53.048;8.732;2023-04-20T11:39:13;8.43;;;5.35;;
43744;SDS011;29359;53.048;8.732;2023-04-20T11:41:15;8.63;;;4.70;;
43744;SDS011;29359;53.048;8.732;2023-04-20T11:43:17;7.05;;;5.03;;
43744;SDS011;29359;53.048;8.732;2023-04-20T11:45:19;7.35;;;4.47;;
43744;SDS011;29359;53.048;8.732;2023-04-20T11:47:21;6.78;;;4.53;;
43744;SDS011;29359;53.048;8.732;2023-04-20T11:49:23;6.50;;;4.82;;
43744;SDS011;29359;53.048;8.732;2023-04-20T11:51:27;7.38;;;4.82;;
43744;SDS011;29359;53.048;8.732;2023-04-20T11:53:28;7.63;;;4.45;;
43744;SDS011;29359;53.048;8.732;2023-04-20T11:55:30;6.05;;;4.90;;
43744;SDS011;29359;53.048;8.732;2023-04-20T11:57:31;9.75;;;4.78;;
43744;SDS011;29359;53.048;8.732;2023-04-20T11:59:33;5.15;;;4.57;;
43744;SDS011;29359;53.048;8.732;2023-04-20T12:01:35;6.47;;;4.93;;
43744;SDS011;29359;53.048;8.732;2023-04-20T12:03:37;5.15;;;4.63;;
43744;SDS011;29359;53.048;8.732;2023-04-20T12:05:39;6.75;;;4.20;;
43744;SDS011;29359;53.048;8.732;2023-04-20T12:07:41;5.97;;;5.13;;
43744;SDS011;29359;53.048;8.732;2023-04-20T12:09:43;5.18;;;4.32;;
43744;SDS011;29359;53.048;8.732;2023-04-20T12:11:44;5.18;;;4.18;;
43744;SDS011;29359;53.048;8.732;2023-04-20T12:13:46;5.97;;;4.50;;
43744;SDS011;29359;53.048;8.732;2023-04-20T12:15:48;5.88;;;4.60;;
43744;SDS011;29359;53.048;8.732;2023-04-20T12:17:49;4.13;;;3.67;;
43744;SDS011;29359;53.048;8.732;2023-04-20T12:19:51;4.40;;;4.00;;
43744;SDS011;29359;53.048;8.732;2023-04-20T12:21:52;5.57;;;4.15;;
43744;SDS011;29359;53.048;8.732;2023-04-20T12:23:54;5.20;;;4.40;;